Terminal Aerodrome Forecast
Issued by NWS

Current Version | Previous Version | Graphics & Text | Print | Product List | Glossary On
Versions: 1 2 3 4 5 6 7 8 9 10 11 12 13 14 15 16 17 18
000
FTUS41 KILN 181720
TAFLCK
TAF
KLCK 181720Z 1818/1918 VRB04KT P6SM BKN090 BKN200
     FM182100 VRB03KT P6SM SCT040 BKN090
     FM182300 00000KT P6SM SCT080
     FM191100 00000KT 4SM BR BKN120
     FM191300 VRB03KT P6SM SCT050 BKN100
     FM191700 VRB03KT P6SM VCSH BKN080=

USA.gov is the U.S. government's official web portal to all federal, state and local government web resources and services.